sensor_id;sensor_type;location;lat;lon;timestamp;P1;durP1;ratioP1;P2;durP2;ratioP2
24216;SDS011;12356;49.386;8.688;2023-05-07T00:00:20;1.80;;;1.25;;
24216;SDS011;12356;49.386;8.688;2023-05-07T00:02:50;2.47;;;1.30;;
24216;SDS011;12356;49.386;8.688;2023-05-07T00:05:21;3.42;;;1.30;;
24216;SDS011;12356;49.386;8.688;2023-05-07T00:07:51;1.75;;;1.10;;
24216;SDS011;12356;49.386;8.688;2023-05-07T00:10:22;2.60;;;1.30;;
24216;SDS011;12356;49.386;8.688;2023-05-07T00:12:54;2.45;;;1.25;;
24216;SDS011;12356;49.386;8.688;2023-05-07T00:15:24;2.05;;;1.58;;
24216;SDS011;12356;49.386;8.688;2023-05-07T00:17:55;2.10;;;1.50;;
24216;SDS011;12356;49.386;8.688;2023-05-07T00:20:26;1.55;;;1.40;;
24216;SDS011;12356;49.386;8.688;2023-05-07T00:22:56;4.53;;;1.58;;
24216;SDS011;12356;49.386;8.688;2023-05-07T00:25:27;2.22;;;1.60;;
24216;SDS011;12356;49.386;8.688;2023-05-07T00:27:57;5.03;;;1.80;;
24216;SDS011;12356;49.386;8.688;2023-05-07T00:30:33;2.75;;;1.60;;
24216;SDS011;12356;49.386;8.688;2023-05-07T00:33:04;6.47;;;1.50;;
24216;SDS011;12356;49.386;8.688;2023-05-07T00:35:34;1.80;;;1.50;;
24216;SDS011;12356;49.386;8.688;2023-05-07T00:38:05;2.55;;;1.58;;
24216;SDS011;12356;49.386;8.688;2023-05-07T00:40:35;3.78;;;1.60;;
24216;SDS011;12356;49.386;8.688;2023-05-07T00:43:06;1.58;;;1.48;;
24216;SDS011;12356;49.386;8.688;2023-05-07T00:45:36;2.42;;;1.60;;
24216;SDS011;12356;49.386;8.688;2023-05-07T00:48:07;1.83;;;1.20;;
24216;SDS011;12356;49.386;8.688;2023-05-07T00:50:38;2.55;;;1.38;;
24216;SDS011;12356;49.386;8.688;2023-05-07T00:53:08;2.85;;;1.48;;
24216;SDS011;12356;49.386;8.688;2023-05-07T00:55:39;1.40;;;1.30;;
24216;SDS011;12356;49.386;8.688;2023-05-07T00:58:10;2.20;;;1.40;;
24216;SDS011;12356;49.386;8.688;2023-05-07T01:00:40;2.85;;;1.35;;
24216;SDS011;12356;49.386;8.688;2023-05-07T01:03:11;1.40;;;1.25;;
24216;SDS011;12356;49.386;8.688;2023-05-07T01:05:42;2.05;;;1.20;;
24216;SDS011;12356;49.386;8.688;2023-05-07T01:08:14;1.60;;;1.27;;
24216;SDS011;12356;49.386;8.688;2023-05-07T01:10:45;3.50;;;1.60;;
24216;SDS011;12356;49.386;8.688;2023-05-07T01:13:17;3.72;;;1.30;;
24216;SDS011;12356;49.386;8.688;2023-05-07T01:15:48;1.48;;;1.20;;
24216;SDS011;12356;49.386;8.688;2023-05-07T01:18:19;2.72;;;1.50;;
24216;SDS011;12356;49.386;8.688;2023-05-07T01:20:50;2.00;;;1.48;;
24216;SDS011;12356;49.386;8.688;2023-05-07T01:23:21;1.60;;;1.20;;
24216;SDS011;12356;49.386;8.688;2023-05-07T01:25:52;2.33;;;1.17;;
24216;SDS011;12356;49.386;8.688;2023-05-07T01:28:24;3.35;;;1.40;;
24216;SDS011;12356;49.386;8.688;2023-05-07T01:30:56;2.75;;;1.15;;
24216;SDS011;12356;49.386;8.688;2023-05-07T01:33:33;2.50;;;1.30;;
24216;SDS011;12356;49.386;8.688;2023-05-07T01:36:05;5.47;;;1.15;;
24216;SDS011;12356;49.386;8.688;2023-05-07T01:38:38;2.60;;;1.20;;
24216;SDS011;12356;49.386;8.688;2023-05-07T01:41:11;1.83;;;1.17;;
24216;SDS011;12356;49.386;8.688;2023-05-07T01:43:42;1.97;;;1.13;;
24216;SDS011;12356;49.386;8.688;2023-05-07T01:46:13;1.85;;;1.20;;
24216;SDS011;12356;49.386;8.688;2023-05-07T01:48:45;1.88;;;1.27;;
24216;SDS011;12356;49.386;8.688;2023-05-07T01:51:16;1.30;;;1.10;;
24216;SDS011;12356;49.386;8.688;2023-05-07T01:53:46;1.95;;;1.30;;
24216;SDS011;12356;49.386;8.688;2023-05-07T01:56:20;1.67;;;1.10;;
24216;SDS011;12356;49.386;8.688;2023-05-07T01:58:51;1.98;;;1.30;;
24216;SDS011;12356;49.386;8.688;2023-05-07T02:01:22;4.65;;;1.35;;
24216;SDS011;12356;49.386;8.688;2023-05-07T02:03:53;1.73;;;1.30;;
24216;SDS011;12356;49.386;8.688;2023-05-07T02:06:23;1.85;;;1.25;;
24216;SDS011;12356;49.386;8.688;2023-05-07T02:08:54;2.55;;;1.30;;
24216;SDS011;12356;49.386;8.688;2023-05-07T02:11:25;2.10;;;1.40;;
24216;SDS011;12356;49.386;8.688;2023-05-07T02:13:55;1.45;;;1.00;;
24216;SDS011;12356;49.386;8.688;2023-05-07T02:16:26;2.25;;;1.40;;
24216;SDS011;12356;49.386;8.688;2023-05-07T02:18:56;2.65;;;1.30;;
24216;SDS011;12356;49.386;8.688;2023-05-07T02:21:28;1.60;;;1.20;;
24216;SDS011;12356;49.386;8.688;2023-05-07T02:23:58;2.53;;;1.20;;
24216;SDS011;12356;49.386;8.688;2023-05-07T02:26:29;2.50;;;1.30;;
24216;SDS011;12356;49.386;8.688;2023-05-07T02:28:59;1.55;;;1.13;;
24216;SDS011;12356;49.386;8.688;2023-05-07T02:31:30;3.13;;;1.30;;
24216;SDS011;12356;49.386;8.688;2023-05-07T02:34:01;2.47;;;1.30;;
24216;SDS011;12356;49.386;8.688;2023-05-07T02:36:31;2.38;;;1.17;;
24216;SDS011;12356;49.386;8.688;2023-05-07T02:39:02;2.08;;;1.20;;
24216;SDS011;12356;49.386;8.688;2023-05-07T02:41:33;2.42;;;1.17;;
24216;SDS011;12356;49.386;8.688;2023-05-07T02:44:04;3.22;;;1.30;;
24216;SDS011;12356;49.386;8.688;2023-05-07T02:46:35;2.35;;;1.30;;
24216;SDS011;12356;49.386;8.688;2023-05-07T02:49:05;1.70;;;1.20;;
24216;SDS011;12356;49.386;8.688;2023-05-07T02:51:36;1.92;;;1.20;;
24216;SDS011;12356;49.386;8.688;2023-05-07T02:54:07;1.65;;;1.25;;
24216;SDS011;12356;49.386;8.688;2023-05-07T02:56:37;2.00;;;1.23;;
24216;SDS011;12356;49.386;8.688;2023-05-07T02:59:08;1.33;;;1.20;;
24216;SDS011;12356;49.386;8.688;2023-05-07T03:01:38;2.97;;;1.17;;
24216;SDS011;12356;49.386;8.688;2023-05-07T03:04:09;6.22;;;1.15;;
24216;SDS011;12356;49.386;8.688;2023-05-07T03:06:40;7.60;;;1.20;;
24216;SDS011;12356;49.386;8.688;2023-05-07T03:09:11;3.72;;;1.20;;
24216;SDS011;12356;49.386;8.688;2023-05-07T03:11:42;2.33;;;1.38;;
24216;SDS011;12356;49.386;8.688;2023-05-07T03:14:12;1.40;;;1.30;;
24216;SDS011;12356;49.386;8.688;2023-05-07T03:16:43;1.35;;;1.08;;
24216;SDS011;12356;49.386;8.688;2023-05-07T03:19:13;2.00;;;1.40;;
24216;SDS011;12356;49.386;8.688;2023-05-07T03:21:44;2.20;;;1.30;;
24216;SDS011;12356;49.386;8.688;2023-05-07T03:24:14;2.88;;;1.30;;
24216;SDS011;12356;49.386;8.688;2023-05-07T03:26:45;1.42;;;1.15;;
24216;SDS011;12356;49.386;8.688;2023-05-07T03:29:15;1.98;;;1.33;;
24216;SDS011;12356;49.386;8.688;2023-05-07T03:31:46;2.97;;;1.50;;
24216;SDS011;12356;49.386;8.688;2023-05-07T03:34:17;3.15;;;1.48;;
24216;SDS011;12356;49.386;8.688;2023-05-07T03:36:51;1.63;;;1.42;;
24216;SDS011;12356;49.386;8.688;2023-05-07T03:39:22;1.55;;;1.45;;
24216;SDS011;12356;49.386;8.688;2023-05-07T03:41:53;3.42;;;1.70;;
24216;SDS011;12356;49.386;8.688;2023-05-07T03:44:23;3.03;;;1.80;;
24216;SDS011;12356;49.386;8.688;2023-05-07T03:46:54;2.28;;;1.70;;
24216;SDS011;12356;49.386;8.688;2023-05-07T03:49:25;3.55;;;1.83;;
24216;SDS011;12356;49.386;8.688;2023-05-07T03:51:55;4.40;;;2.00;;
24216;SDS011;12356;49.386;8.688;2023-05-07T03:54:26;3.97;;;2.03;;
24216;SDS011;12356;49.386;8.688;2023-05-07T03:56:57;2.85;;;2.05;;
24216;SDS011;12356;49.386;8.688;2023-05-07T03:59:27;1.77;;;1.65;;
24216;SDS011;12356;49.386;8.688;2023-05-07T04:01:58;3.75;;;1.70;;
24216;SDS011;12356;49.386;8.688;2023-05-07T04:04:28;4.00;;;1.95;;
24216;SDS011;12356;49.386;8.688;2023-05-07T04:07:02;4.75;;;2.20;;
24216;SDS011;12356;49.386;8.688;2023-05-07T04:09:33;2.45;;;2.25;;
24216;SDS011;12356;49.386;8.688;2023-05-07T04:12:03;3.55;;;2.00;;
24216;SDS011;12356;49.386;8.688;2023-05-07T04:14:34;4.95;;;2.28;;
24216;SDS011;12356;49.386;8.688;2023-05-07T04:17:05;4.50;;;2.50;;
24216;SDS011;12356;49.386;8.688;2023-05-07T04:19:37;3.60;;;2.80;;
24216;SDS011;12356;49.386;8.688;2023-05-07T04:22:09;4.18;;;2.72;;
24216;SDS011;12356;49.386;8.688;2023-05-07T04:24:39;4.18;;;2.80;;
24216;SDS011;12356;49.386;8.688;2023-05-07T04:27:10;4.72;;;3.03;;
24216;SDS011;12356;49.386;8.688;2023-05-07T04:29:41;6.93;;;3.03;;
24216;SDS011;12356;49.386;8.688;2023-05-07T04:32:12;6.45;;;2.83;;
24216;SDS011;12356;49.386;8.688;2023-05-07T04:34:43;4.10;;;2.63;;
24216;SDS011;12356;49.386;8.688;2023-05-07T04:37:13;5.00;;;2.95;;
24216;SDS011;12356;49.386;8.688;2023-05-07T04:39:44;4.85;;;3.33;;
24216;SDS011;12356;49.386;8.688;2023-05-07T04:42:15;5.97;;;4.20;;
24216;SDS011;12356;49.386;8.688;2023-05-07T04:44:46;6.33;;;4.03;;
24216;SDS011;12356;49.386;8.688;2023-05-07T04:47:17;4.57;;;3.80;;
24216;SDS011;12356;49.386;8.688;2023-05-07T04:49:47;6.60;;;3.67;;
24216;SDS011;12356;49.386;8.688;2023-05-07T04:52:18;5.47;;;3.95;;
24216;SDS011;12356;49.386;8.688;2023-05-07T04:54:49;7.15;;;4.10;;
24216;SDS011;12356;49.386;8.688;2023-05-07T04:57:19;6.72;;;3.80;;
24216;SDS011;12356;49.386;8.688;2023-05-07T04:59:50;6.88;;;3.70;;
24216;SDS011;12356;49.386;8.688;2023-05-07T05:02:20;5.75;;;3.30;;
24216;SDS011;12356;49.386;8.688;2023-05-07T05:04:51;5.72;;;3.20;;
24216;SDS011;12356;49.386;8.688;2023-05-07T05:07:21;4.97;;;3.33;;
24216;SDS011;12356;49.386;8.688;2023-05-07T05:09:52;5.75;;;4.00;;
24216;SDS011;12356;49.386;8.688;2023-05-07T05:12:23;6.03;;;3.70;;
24216;SDS011;12356;49.386;8.688;2023-05-07T05:14:53;5.38;;;3.85;;
24216;SDS011;12356;49.386;8.688;2023-05-07T05:17:24;6.68;;;3.50;;
24216;SDS011;12356;49.386;8.688;2023-05-07T05:19:55;3.95;;;3.33;;
24216;SDS011;12356;49.386;8.688;2023-05-07T05:22:26;3.72;;;3.20;;
24216;SDS011;12356;49.386;8.688;2023-05-07T05:24:57;5.43;;;3.80;;
24216;SDS011;12356;49.386;8.688;2023-05-07T05:27:28;6.00;;;3.78;;
24216;SDS011;12356;49.386;8.688;2023-05-07T05:29:58;4.70;;;3.80;;
24216;SDS011;12356;49.386;8.688;2023-05-07T05:32:29;6.32;;;3.83;;
24216;SDS011;12356;49.386;8.688;2023-05-07T05:34:59;6.15;;;3.75;;
24216;SDS011;12356;49.386;8.688;2023-05-07T05:37:30;4.53;;;3.38;;
24216;SDS011;12356;49.386;8.688;2023-05-07T05:40:01;5.90;;;3.80;;
24216;SDS011;12356;49.386;8.688;2023-05-07T05:42:32;7.38;;;3.58;;
24216;SDS011;12356;49.386;8.688;2023-05-07T05:45:02;3.70;;;3.25;;
24216;SDS011;12356;49.386;8.688;2023-05-07T05:47:33;5.10;;;3.35;;
24216;SDS011;12356;49.386;8.688;2023-05-07T05:50:04;3.28;;;2.97;;
24216;SDS011;12356;49.386;8.688;2023-05-07T05:52:36;3.35;;;2.97;;
24216;SDS011;12356;49.386;8.688;2023-05-07T05:55:06;4.32;;;2.70;;
24216;SDS011;12356;49.386;8.688;2023-05-07T05:57:37;5.22;;;2.85;;
24216;SDS011;12356;49.386;8.688;2023-05-07T06:00:08;4.05;;;2.70;;
24216;SDS011;12356;49.386;8.688;2023-05-07T06:02:39;3.72;;;2.70;;
24216;SDS011;12356;49.386;8.688;2023-05-07T06:05:10;6.43;;;2.70;;
24216;SDS011;12356;49.386;8.688;2023-05-07T06:07:41;5.45;;;2.80;;
24216;SDS011;12356;49.386;8.688;2023-05-07T06:10:11;4.00;;;2.50;;
24216;SDS011;12356;49.386;8.688;2023-05-07T06:12:42;5.22;;;3.10;;
24216;SDS011;12356;49.386;8.688;2023-05-07T06:15:12;5.78;;;2.85;;
24216;SDS011;12356;49.386;8.688;2023-05-07T06:17:43;4.30;;;2.80;;
24216;SDS011;12356;49.386;8.688;2023-05-07T06:20:13;3.85;;;2.53;;
24216;SDS011;12356;49.386;8.688;2023-05-07T06:22:44;3.78;;;2.47;;
24216;SDS011;12356;49.386;8.688;2023-05-07T06:25:14;2.90;;;2.20;;
24216;SDS011;12356;49.386;8.688;2023-05-07T06:27:45;4.10;;;2.20;;
24216;SDS011;12356;49.386;8.688;2023-05-07T06:30:15;3.40;;;2.30;;
24216;SDS011;12356;49.386;8.688;2023-05-07T06:32:46;3.85;;;2.75;;
24216;SDS011;12356;49.386;8.688;2023-05-07T06:35:17;4.30;;;3.20;;
24216;SDS011;12356;49.386;8.688;2023-05-07T06:37:47;5.90;;;4.25;;
24216;SDS011;12356;49.386;8.688;2023-05-07T06:40:18;4.88;;;4.10;;
24216;SDS011;12356;49.386;8.688;2023-05-07T06:42:48;5.65;;;4.03;;
24216;SDS011;12356;49.386;8.688;2023-05-07T06:45:19;6.50;;;4.07;;
24216;SDS011;12356;49.386;8.688;2023-05-07T06:47:50;5.45;;;4.07;;
24216;SDS011;12356;49.386;8.688;2023-05-07T06:50:21;5.90;;;4.90;;
24216;SDS011;12356;49.386;8.688;2023-05-07T06:52:51;5.80;;;4.68;;
24216;SDS011;12356;49.386;8.688;2023-05-07T06:55:22;8.60;;;5.20;;
24216;SDS011;12356;49.386;8.688;2023-05-07T06:57:52;8.13;;;5.38;;
24216;SDS011;12356;49.386;8.688;2023-05-07T07:00:23;7.15;;;4.95;;
24216;SDS011;12356;49.386;8.688;2023-05-07T07:02:54;8.23;;;5.15;;
24216;SDS011;12356;49.386;8.688;2023-05-07T07:05:25;7.13;;;4.80;;
24216;SDS011;12356;49.386;8.688;2023-05-07T07:07:56;6.90;;;4.72;;
24216;SDS011;12356;49.386;8.688;2023-05-07T07:10:26;9.10;;;5.50;;
24216;SDS011;12356;49.386;8.688;2023-05-07T07:12:57;8.93;;;5.55;;
24216;SDS011;12356;49.386;8.688;2023-05-07T07:15:27;8.38;;;5.15;;
24216;SDS011;12356;49.386;8.688;2023-05-07T07:17:58;6.72;;;5.10;;
24216;SDS011;12356;49.386;8.688;2023-05-07T07:20:29;8.07;;;4.80;;
24216;SDS011;12356;49.386;8.688;2023-05-07T07:22:59;6.05;;;4.97;;
24216;SDS011;12356;49.386;8.688;2023-05-07T07:25:30;7.30;;;5.30;;
24216;SDS011;12356;49.386;8.688;2023-05-07T07:28:00;6.72;;;4.50;;
24216;SDS011;12356;49.386;8.688;2023-05-07T07:30:31;7.10;;;4.90;;
24216;SDS011;12356;49.386;8.688;2023-05-07T07:33:02;5.72;;;4.60;;
24216;SDS011;12356;49.386;8.688;2023-05-07T07:35:33;9.32;;;4.40;;
24216;SDS011;12356;49.386;8.688;2023-05-07T07:38:03;5.40;;;4.35;;
24216;SDS011;12356;49.386;8.688;2023-05-07T07:40:34;5.25;;;3.83;;
24216;SDS011;12356;49.386;8.688;2023-05-07T07:43:05;6.68;;;3.70;;
24216;SDS011;12356;49.386;8.688;2023-05-07T07:45:36;4.47;;;3.90;;
24216;SDS011;12356;49.386;8.688;2023-05-07T07:48:06;6.15;;;4.00;;
24216;SDS011;12356;49.386;8.688;2023-05-07T07:50:37;6.13;;;3.90;;
24216;SDS011;12356;49.386;8.688;2023-05-07T07:53:08;4.60;;;4.03;;
24216;SDS011;12356;49.386;8.688;2023-05-07T07:55:39;5.82;;;3.40;;
24216;SDS011;12356;49.386;8.688;2023-05-07T07:58:10;6.32;;;3.70;;
24216;SDS011;12356;49.386;8.688;2023-05-07T08:00:41;6.28;;;3.40;;
24216;SDS011;12356;49.386;8.688;2023-05-07T08:03:11;4.20;;;3.40;;
24216;SDS011;12356;49.386;8.688;2023-05-07T08:05:42;3.65;;;3.28;;
24216;SDS011;12356;49.386;8.688;2023-05-07T08:08:13;6.13;;;3.47;;
24216;SDS011;12356;49.386;8.688;2023-05-07T08:10:44;6.40;;;3.38;;
24216;SDS011;12356;49.386;8.688;2023-05-07T08:13:14;6.65;;;3.50;;
24216;SDS011;12356;49.386;8.688;2023-05-07T08:15:45;8.23;;;3.92;;
24216;SDS011;12356;49.386;8.688;2023-05-07T08:18:15;7.32;;;4.03;;
24216;SDS011;12356;49.386;8.688;2023-05-07T08:20:46;6.65;;;3.80;;
24216;SDS011;12356;49.386;8.688;2023-05-07T08:23:17;5.10;;;3.70;;
24216;SDS011;12356;49.386;8.688;2023-05-07T08:25:48;5.85;;;3.53;;
24216;SDS011;12356;49.386;8.688;2023-05-07T08:28:19;6.47;;;3.80;;
24216;SDS011;12356;49.386;8.688;2023-05-07T08:30:51;5.90;;;3.30;;
24216;SDS011;12356;49.386;8.688;2023-05-07T08:33:22;4.53;;;3.40;;
24216;SDS011;12356;49.386;8.688;2023-05-07T08:35:52;5.82;;;3.50;;
24216;SDS011;12356;49.386;8.688;2023-05-07T08:38:23;5.30;;;3.20;;
24216;SDS011;12356;49.386;8.688;2023-05-07T08:40:53;5.50;;;3.20;;
24216;SDS011;12356;49.386;8.688;2023-05-07T08:43:26;5.75;;;3.13;;
24216;SDS011;12356;49.386;8.688;2023-05-07T08:45:57;3.08;;;2.67;;
24216;SDS011;12356;49.386;8.688;2023-05-07T08:48:32;4.82;;;3.38;;
24216;SDS011;12356;49.386;8.688;2023-05-07T08:51:02;8.40;;;3.15;;
24216;SDS011;12356;49.386;8.688;2023-05-07T08:53:33;3.63;;;2.80;;
24216;SDS011;12356;49.386;8.688;2023-05-07T08:56:05;5.33;;;2.70;;
24216;SDS011;12356;49.386;8.688;2023-05-07T08:58:36;7.13;;;2.83;;
24216;SDS011;12356;49.386;8.688;2023-05-07T09:01:08;8.90;;;3.25;;
24216;SDS011;12356;49.386;8.688;2023-05-07T09:03:40;4.68;;;2.83;;
24216;SDS011;12356;49.386;8.688;2023-05-07T09:06:15;5.85;;;2.67;;
24216;SDS011;12356;49.386;8.688;2023-05-07T09:11:24;4.13;;;3.00;;
24216;SDS011;12356;49.386;8.688;2023-05-07T09:13:55;3.90;;;3.03;;
24216;SDS011;12356;49.386;8.688;2023-05-07T09:16:28;3.60;;;2.83;;
24216;SDS011;12356;49.386;8.688;2023-05-07T09:19:00;4.20;;;2.70;;
24216;SDS011;12356;49.386;8.688;2023-05-07T09:21:31;3.17;;;2.33;;
24216;SDS011;12356;49.386;8.688;2023-05-07T09:24:01;5.30;;;2.53;;
24216;SDS011;12356;49.386;8.688;2023-05-07T09:26:32;3.83;;;2.53;;
24216;SDS011;12356;49.386;8.688;2023-05-07T09:29:03;3.83;;;2.78;;
24216;SDS011;12356;49.386;8.688;2023-05-07T09:31:37;3.58;;;2.50;;
24216;SDS011;12356;49.386;8.688;2023-05-07T09:34:08;5.35;;;2.60;;
24216;SDS011;12356;49.386;8.688;2023-05-07T09:36:38;3.17;;;2.53;;
24216;SDS011;12356;49.386;8.688;2023-05-07T09:39:09;3.72;;;2.30;;
24216;SDS011;12356;49.386;8.688;2023-05-07T09:41:43;5.15;;;2.72;;
24216;SDS011;12356;49.386;8.688;2023-05-07T09:44:15;4.00;;;2.47;;
24216;SDS011;12356;49.386;8.688;2023-05-07T09:46:45;3.20;;;2.30;;
24216;SDS011;12356;49.386;8.688;2023-05-07T09:49:22;3.58;;;2.40;;
24216;SDS011;12356;49.386;8.688;2023-05-07T09:51:55;5.82;;;2.50;;
24216;SDS011;12356;49.386;8.688;2023-05-07T09:54:26;4.37;;;2.50;;
24216;SDS011;12356;49.386;8.688;2023-05-07T09:57:04;4.60;;;2.40;;
24216;SDS011;12356;49.386;8.688;2023-05-07T09:59:36;4.55;;;2.63;;
24216;SDS011;12356;49.386;8.688;2023-05-07T10:02:08;5.45;;;2.40;;
24216;SDS011;12356;49.386;8.688;2023-05-07T10:04:40;4.03;;;2.55;;
24216;SDS011;12356;49.386;8.688;2023-05-07T10:07:13;2.60;;;2.40;;
24216;SDS011;12356;49.386;8.688;2023-05-07T10:09:45;2.58;;;2.15;;
24216;SDS011;12356;49.386;8.688;2023-05-07T10:12:16;3.90;;;2.20;;
24216;SDS011;12356;49.386;8.688;2023-05-07T10:14:48;3.20;;;2.30;;
24216;SDS011;12356;49.386;8.688;2023-05-07T10:17:21;2.50;;;2.08;;
24216;SDS011;12356;49.386;8.688;2023-05-07T10:19:53;4.93;;;2.38;;
24216;SDS011;12356;49.386;8.688;2023-05-07T10:22:24;2.63;;;2.10;;
24216;SDS011;12356;49.386;8.688;2023-05-07T10:27:29;4.82;;;2.30;;
24216;SDS011;12356;49.386;8.688;2023-05-07T10:32:47;3.22;;;1.70;;
24216;SDS011;12356;49.386;8.688;2023-05-07T10:35:21;2.67;;;1.70;;
24216;SDS011;12356;49.386;8.688;2023-05-07T10:37:55;3.10;;;2.10;;
24216;SDS011;12356;49.386;8.688;2023-05-07T10:40:25;3.22;;;2.10;;
24216;SDS011;12356;49.386;8.688;2023-05-07T10:43:00;2.78;;;1.70;;
24216;SDS011;12356;49.386;8.688;2023-05-07T10:45:37;2.15;;;1.65;;
24216;SDS011;12356;49.386;8.688;2023-05-07T10:48:12;3.08;;;1.80;;
24216;SDS011;12356;49.386;8.688;2023-05-07T10:50:44;4.20;;;1.73;;
24216;SDS011;12356;49.386;8.688;2023-05-07T10:55:52;2.97;;;1.77;;
24216;SDS011;12356;49.386;8.688;2023-05-07T10:58:48;1.90;;;1.70;;
24216;SDS011;12356;49.386;8.688;2023-05-07T11:01:48;5.82;;;2.00;;
24216;SDS011;12356;49.386;8.688;2023-05-07T11:04:25;3.05;;;1.65;;
24216;SDS011;12356;49.386;8.688;2023-05-07T11:09:55;2.08;;;1.70;;
24216;SDS011;12356;49.386;8.688;2023-05-07T11:15:11;2.25;;;1.40;;
24216;SDS011;12356;49.386;8.688;2023-05-07T11:17:52;1.55;;;1.45;;
24216;SDS011;12356;49.386;8.688;2023-05-07T11:23:54;3.45;;;1.77;;
24216;SDS011;12356;49.386;8.688;2023-05-07T11:26:08;2.30;;;1.70;;
24216;SDS011;12356;49.386;8.688;2023-05-07T11:28:40;5.13;;;1.67;;
24216;SDS011;12356;49.386;8.688;2023-05-07T11:31:12;3.33;;;1.60;;
24216;SDS011;12356;49.386;8.688;2023-05-07T11:33:43;2.13;;;1.90;;
24216;SDS011;12356;49.386;8.688;2023-05-07T11:36:14;2.60;;;1.90;;
24216;SDS011;12356;49.386;8.688;2023-05-07T11:38:45;3.63;;;1.90;;
24216;SDS011;12356;49.386;8.688;2023-05-07T11:41:16;2.10;;;1.77;;
24216;SDS011;12356;49.386;8.688;2023-05-07T11:43:55;2.10;;;1.90;;
24216;SDS011;12356;49.386;8.688;2023-05-07T11:46:26;4.53;;;1.83;;
24216;SDS011;12356;49.386;8.688;2023-05-07T11:48:58;3.33;;;2.20;;
24216;SDS011;12356;49.386;8.688;2023-05-07T11:51:30;4.10;;;2.10;;
24216;SDS011;12356;49.386;8.688;2023-05-07T11:54:03;3.05;;;2.20;;
24216;SDS011;12356;49.386;8.688;2023-05-07T11:56:34;3.42;;;2.17;;
24216;SDS011;12356;49.386;8.688;2023-05-07T11:59:08;2.00;;;1.80;;
24216;SDS011;12356;49.386;8.688;2023-05-07T12:01:39;2.30;;;2.10;;
24216;SDS011;12356;49.386;8.688;2023-05-07T12:04:09;3.63;;;2.25;;
24216;SDS011;12356;49.386;8.688;2023-05-07T12:06:40;3.38;;;2.38;;
24216;SDS011;12356;49.386;8.688;2023-05-07T12:09:10;6.40;;;4.75;;
24216;SDS011;12356;49.386;8.688;2023-05-07T12:11:41;4.10;;;2.50;;
24216;SDS011;12356;49.386;8.688;2023-05-07T12:14:16;4.60;;;2.30;;
24216;SDS011;12356;49.386;8.688;2023-05-07T12:16:46;2.63;;;2.30;;
24216;SDS011;12356;49.386;8.688;2023-05-07T12:19:17;2.80;;;2.33;;
24216;SDS011;12356;49.386;8.688;2023-05-07T12:21:48;3.72;;;2.20;;
24216;SDS011;12356;49.386;8.688;2023-05-07T12:24:18;3.00;;;2.28;;
24216;SDS011;12356;49.386;8.688;2023-05-07T12:26:49;3.95;;;2.17;;
24216;SDS011;12356;49.386;8.688;2023-05-07T12:29:23;5.35;;;2.40;;
24216;SDS011;12356;49.386;8.688;2023-05-07T12:31:53;2.97;;;2.40;;
24216;SDS011;12356;49.386;8.688;2023-05-07T12:34:24;4.65;;;2.22;;
24216;SDS011;12356;49.386;8.688;2023-05-07T12:36:55;4.47;;;2.30;;
24216;SDS011;12356;49.386;8.688;2023-05-07T12:39:25;2.47;;;2.13;;
24216;SDS011;12356;49.386;8.688;2023-05-07T12:41:57;3.70;;;2.55;;
24216;SDS011;12356;49.386;8.688;2023-05-07T12:44:30;6.82;;;2.60;;
24216;SDS011;12356;49.386;8.688;2023-05-07T12:47:02;2.22;;;2.00;;
24216;SDS011;12356;49.386;8.688;2023-05-07T12:49:34;2.75;;;2.25;;
24216;SDS011;12356;49.386;8.688;2023-05-07T12:52:07;5.45;;;2.40;;
24216;SDS011;12356;49.386;8.688;2023-05-07T12:54:38;2.75;;;2.40;;
24216;SDS011;12356;49.386;8.688;2023-05-07T12:57:09;4.97;;;2.47;;
24216;SDS011;12356;49.386;8.688;2023-05-07T12:59:41;3.30;;;2.30;;
24216;SDS011;12356;49.386;8.688;2023-05-07T13:02:11;4.47;;;2.45;;
24216;SDS011;12356;49.386;8.688;2023-05-07T13:04:42;4.05;;;2.42;;
24216;SDS011;12356;49.386;8.688;2023-05-07T13:07:12;3.05;;;2.20;;
24216;SDS011;12356;49.386;8.688;2023-05-07T13:09:43;3.83;;;2.60;;
24216;SDS011;12356;49.386;8.688;2023-05-07T13:12:14;2.30;;;2.05;;
24216;SDS011;12356;49.386;8.688;2023-05-07T13:14:44;3.08;;;2.10;;
24216;SDS011;12356;49.386;8.688;2023-05-07T13:17:15;3.55;;;2.45;;
24216;SDS011;12356;49.386;8.688;2023-05-07T13:19:45;2.45;;;2.20;;
24216;SDS011;12356;49.386;8.688;2023-05-07T13:22:16;6.97;;;2.60;;
24216;SDS011;12356;49.386;8.688;2023-05-07T13:24:46;2.70;;;2.40;;
24216;SDS011;12356;49.386;8.688;2023-05-07T13:27:17;4.13;;;2.10;;
24216;SDS011;12356;49.386;8.688;2023-05-07T13:29:49;3.10;;;2.30;;
24216;SDS011;12356;49.386;8.688;2023-05-07T13:32:19;2.75;;;2.40;;
24216;SDS011;12356;49.386;8.688;2023-05-07T13:34:50;6.53;;;2.30;;
24216;SDS011;12356;49.386;8.688;2023-05-07T13:37:20;4.90;;;2.40;;
24216;SDS011;12356;49.386;8.688;2023-05-07T13:39:51;3.63;;;2.25;;
24216;SDS011;12356;49.386;8.688;2023-05-07T13:42:21;4.68;;;2.45;;
24216;SDS011;12356;49.386;8.688;2023-05-07T13:44:52;2.70;;;2.30;;
24216;SDS011;12356;49.386;8.688;2023-05-07T13:47:22;4.18;;;2.30;;
24216;SDS011;12356;49.386;8.688;2023-05-07T13:49:53;5.43;;;1.98;;
24216;SDS011;12356;49.386;8.688;2023-05-07T13:52:23;2.38;;;2.17;;
24216;SDS011;12356;49.386;8.688;2023-05-07T13:54:54;3.30;;;2.33;;
24216;SDS011;12356;49.386;8.688;2023-05-07T13:57:26;4.20;;;2.25;;
24216;SDS011;12356;49.386;8.688;2023-05-07T13:59:56;4.72;;;2.33;;
24216;SDS011;12356;49.386;8.688;2023-05-07T14:02:27;5.13;;;2.40;;
24216;SDS011;12356;49.386;8.688;2023-05-07T14:04:57;4.43;;;2.40;;
24216;SDS011;12356;49.386;8.688;2023-05-07T14:07:28;3.88;;;2.40;;
24216;SDS011;12356;49.386;8.688;2023-05-07T14:09:59;4.53;;;2.50;;
24216;SDS011;12356;49.386;8.688;2023-05-07T14:12:29;4.30;;;2.50;;
24216;SDS011;12356;49.386;8.688;2023-05-07T14:15:01;6.60;;;2.50;;
24216;SDS011;12356;49.386;8.688;2023-05-07T14:17:31;5.07;;;2.20;;
24216;SDS011;12356;49.386;8.688;2023-05-07T14:20:02;4.68;;;2.17;;
24216;SDS011;12356;49.386;8.688;2023-05-07T14:22:33;2.92;;;2.03;;
24216;SDS011;12356;49.386;8.688;2023-05-07T14:25:04;4.10;;;2.10;;
24216;SDS011;12356;49.386;8.688;2023-05-07T14:27:34;4.53;;;2.13;;
24216;SDS011;12356;49.386;8.688;2023-05-07T14:30:05;5.93;;;2.50;;
24216;SDS011;12356;49.386;8.688;2023-05-07T14:32:36;4.78;;;1.92;;
24216;SDS011;12356;49.386;8.688;2023-05-07T14:35:07;6.55;;;2.20;;
24216;SDS011;12356;49.386;8.688;2023-05-07T14:37:38;7.68;;;2.10;;
24216;SDS011;12356;49.386;8.688;2023-05-07T14:40:09;5.00;;;1.95;;
24216;SDS011;12356;49.386;8.688;2023-05-07T14:42:40;4.15;;;1.80;;
24216;SDS011;12356;49.386;8.688;2023-05-07T14:45:10;9.07;;;2.15;;
24216;SDS011;12356;49.386;8.688;2023-05-07T14:47:41;5.63;;;2.20;;
24216;SDS011;12356;49.386;8.688;2023-05-07T14:50:11;7.30;;;1.85;;
24216;SDS011;12356;49.386;8.688;2023-05-07T14:52:42;6.85;;;2.70;;
24216;SDS011;12356;49.386;8.688;2023-05-07T14:55:13;9.30;;;3.30;;
24216;SDS011;12356;49.386;8.688;2023-05-07T14:57:43;5.13;;;2.60;;
24216;SDS011;12356;49.386;8.688;2023-05-07T15:00:14;3.72;;;2.30;;
24216;SDS011;12356;49.386;8.688;2023-05-07T15:02:45;7.32;;;2.65;;
24216;SDS011;12356;49.386;8.688;2023-05-07T15:05:16;6.10;;;2.50;;
24216;SDS011;12356;49.386;8.688;2023-05-07T15:07:48;5.95;;;2.42;;
24216;SDS011;12356;49.386;8.688;2023-05-07T15:10:19;6.43;;;2.60;;
24216;SDS011;12356;49.386;8.688;2023-05-07T15:12:49;5.50;;;2.40;;
24216;SDS011;12356;49.386;8.688;2023-05-07T15:15:20;6.70;;;3.83;;
24216;SDS011;12356;49.386;8.688;2023-05-07T15:17:50;7.68;;;2.60;;
24216;SDS011;12356;49.386;8.688;2023-05-07T15:20:21;8.02;;;3.25;;
24216;SDS011;12356;49.386;8.688;2023-05-07T15:22:51;10.85;;;4.00;;
24216;SDS011;12356;49.386;8.688;2023-05-07T15:25:22;7.55;;;2.80;;
24216;SDS011;12356;49.386;8.688;2023-05-07T15:27:53;6.75;;;2.95;;
24216;SDS011;12356;49.386;8.688;2023-05-07T15:30:23;4.93;;;3.08;;